Spokane International Airport
KGEG : now visible

Airfield :











YOU CAN JOIN US ON...

 
LOGIN :

Register | Disclaimer

   EN    FR    IT 

 









Legend :    VFR   Marginal VFR   IFR   Intensive IFR   Very Intensive IFR
Visi :
Ceiling :
>= 8 km
>= 3000ft
5 to 8 km
1000 to 3000 ft
1500m to 5 km
500 to 1000 ft
800 to 1500m
200 to 500 ft
< 800m
< 200 ft
Symbols :   Thunderstorms  Fog  Heavy snow  Heavy precipitations  Wind > 20 kt







- Airport Elevation : 2376 ft
- IATA code : GEG


KGEG - Spokane International

CURRENT METAR :
  • 192153Z 35005KT 7SM -SN OVC010 M06/M09 A2997 RMK AO2 SNB46 CIG 009V013 SLP184 P0000 T10561089

EXPIRED METARs :
  • 192053Z 19004KT 10SM OVC014 M04/M08 A2998 RMK AO2 SNE17 SLP189 P0000 60000 T10441078 56026
  • 191953Z 10004KT 5SM -SN OVC010 M06/M10 A3001 RMK AO2 SNB16 SLP197 P0000 T10561100

TAF KGEG
Valid from the 19 at 22:00 until the 20 at 18:00 UTC


192208Z 1922/2018 VRB04KT 3SM -SN OVC012
FM192330 21006KT 1 1/2SM -SN BR OVC007
FM201000 VRB04KT 3SM -SHSN BKN007 OVC015
FM201400 03007KT P6SM OVC015
KZSE FIR / North America



MET'MAP, your aeronautical weather chart ! - Copyright ORBIFLY December 2007 - Disclaimer

ORBIFLY MET'MAP TEAM :

Programming & Development : Alexandra Zaïnal
Concept & Development : Baudouin d'Aumeries
Co-Development & Prog : Marc-Olivier Méhu
Technical & hardware support : Manuel Goepfert

Contact : metmap@orbifly.com




SOURCES & CREDITS :

   NOAA       Earth
Advisory